Time;durP1;ratioP1;P1;durP2;ratioP2;P2;SDS_P1;SDS_P2;PMS_P1;PMS_P2;Temp;Humidity;BMP_temperature;BMP_pressure;BME280_temperature;BME280_humidity;BME280_pressure;Samples;Min_cycle;Max_cycle;Signal;HPM_P1;HPM_P2
2023/08/18 00:02:15;;;;;;;9.73;4.47;;;28.70;48.10;;;;;;4975514;28;93178;-58
2023/08/18 00:04:44;;;;;;;6.10;4.40;;;28.70;48.10;;;;;;4975540;28;92128;-58
2023/08/18 00:07:12;;;;;;;4.97;4.13;;;28.70;48.20;;;;;;4975400;28;93389;-58
2023/08/18 00:09:43;;;;;;;8.57;4.63;;;28.70;48.20;;;;;;4974850;28;92611;-58
2023/08/18 00:12:11;;;;;;;8.27;4.73;;;28.70;48.20;;;;;;4975499;28;92564;-58
2023/08/18 00:14:39;;;;;;;5.93;4.23;;;28.70;48.20;;;;;;4975150;28;92048;-58
2023/08/18 00:17:08;;;;;;;7.00;4.80;;;28.70;48.20;;;;;;4975200;28;92995;-58
2023/08/18 00:19:36;;;;;;;5.53;4.17;;;28.70;48.20;;;;;;4975829;28;92632;-58
2023/08/18 00:22:04;;;;;;;5.90;4.13;;;28.70;48.30;;;;;;4974764;28;92186;-58
2023/08/18 00:24:33;;;;;;;5.80;4.17;;;28.70;48.30;;;;;;4975345;28;92600;-58
2023/08/18 00:27:03;;;;;;;7.17;4.10;;;28.70;48.20;;;;;;4974859;28;93126;-58
2023/08/18 00:29:31;;;;;;;6.23;4.33;;;28.70;48.30;;;;;;4974695;28;93713;-58
2023/08/18 00:31:59;;;;;;;5.13;3.77;;;28.70;48.30;;;;;;4975375;28;91985;-58
2023/08/18 00:34:27;;;;;;;6.10;4.00;;;28.60;48.30;;;;;;4975128;28;92711;-58
2023/08/18 00:36:56;;;;;;;5.77;3.80;;;28.70;48.30;;;;;;4974666;28;93083;-58
2023/08/18 00:39:24;;;;;;;4.27;3.47;;;28.60;48.30;;;;;;4974896;28;92930;-58
2023/08/18 00:41:52;;;;;;;5.13;3.20;;;28.60;48.30;;;;;;4974915;28;92116;-58
2023/08/18 00:44:22;;;;;;;4.50;3.30;;;28.70;48.30;;;;;;4975560;28;91947;-58
2023/08/18 00:46:50;;;;;;;6.37;3.70;;;28.60;48.30;;;;;;4974934;28;94200;-58
2023/08/18 00:49:18;;;;;;;4.50;3.20;;;28.60;48.30;;;;;;4974679;28;93703;-58
2023/08/18 00:51:46;;;;;;;3.70;3.20;;;28.60;48.30;;;;;;4974731;28;93134;-58
2023/08/18 00:54:15;;;;;;;5.03;3.53;;;28.60;48.30;;;;;;4974649;28;92012;-58
2023/08/18 00:56:45;;;;;;;5.27;3.00;;;28.60;49.00;;;;;;4974562;28;93334;-58
2023/08/18 00:59:13;;;;;;;7.43;4.77;;;28.60;48.30;;;;;;4974982;28;92751;-58
2023/08/18 01:01:43;;;;;;;5.13;3.40;;;28.60;48.30;;;;;;4975472;28;92138;-58
2023/08/18 01:04:12;;;;;;;6.33;4.13;;;28.60;48.30;;;;;;4974832;28;92496;-58
2023/08/18 01:06:40;;;;;;;5.33;3.87;;;28.60;48.30;;;;;;4974899;28;94175;-58
2023/08/18 01:09:09;;;;;;;5.40;3.60;;;28.60;48.30;;;;;;4974358;28;92755;-58
2023/08/18 01:11:40;;;;;;;6.90;3.97;;;28.60;48.30;;;;;;4975343;28;92113;-58
2023/08/18 01:14:15;;;;;;;5.40;4.00;;;28.60;48.30;;;;;;4974373;28;92163;-58
2023/08/18 01:16:48;;;;;;;8.33;3.60;;;28.60;48.30;;;;;;4973961;28;95182;-58
2023/08/18 01:19:17;;;;;;;6.93;3.73;;;28.60;48.30;;;;;;4974620;28;93576;-58
2023/08/18 01:21:45;;;;;;;7.53;3.70;;;28.60;48.30;;;;;;4974933;28;92153;-58
2023/08/18 01:24:14;;;;;;;5.10;3.33;;;28.60;48.30;;;;;;4974977;28;92645;-58
2023/08/18 01:26:42;;;;;;;8.90;5.47;;;28.60;48.30;;;;;;4975024;28;93035;-58
2023/08/18 01:29:11;;;;;;;7.40;5.07;;;28.60;48.30;;;;;;4974268;28;92818;-58
2023/08/18 01:31:39;;;;;;;10.20;5.30;;;28.60;48.30;;;;;;4974397;28;92211;-58
2023/08/18 01:34:08;;;;;;;6.80;4.17;;;28.70;48.40;;;;;;4974211;28;91296;-58
2023/08/18 01:36:38;;;;;;;5.87;4.47;;;28.60;48.30;;;;;;4974816;28;93142;-58
2023/08/18 01:39:07;;;;;;;7.03;4.83;;;28.60;48.40;;;;;;4974729;28;93958;-58
2023/08/18 01:41:36;;;;;;;7.17;4.90;;;28.60;48.40;;;;;;4973702;28;92978;-58
2023/08/18 01:44:06;;;;;;;6.87;4.47;;;28.50;48.40;;;;;;4974561;28;92121;-58
2023/08/18 01:46:34;;;;;;;8.90;5.13;;;28.50;48.40;;;;;;4975249;28;92137;-58
2023/08/18 01:49:03;;;;;;;7.60;4.63;;;28.60;48.40;;;;;;4977325;28;92052;-58
2023/08/18 01:51:31;;;;;;;6.47;4.30;;;28.60;48.40;;;;;;4977861;28;92145;-58
2023/08/18 01:54:00;;;;;;;7.87;4.43;;;28.50;48.30;;;;;;4976781;28;92116;-58
2023/08/18 01:56:28;;;;;;;7.60;4.63;;;28.50;49.00;;;;;;4977263;28;95407;-58
2023/08/18 01:58:57;;;;;;;7.27;4.87;;;28.50;48.40;;;;;;4977270;28;93874;-58
2023/08/18 02:01:25;;;;;;;9.70;4.73;;;28.50;48.40;;;;;;4977931;28;92849;-58
2023/08/18 02:03:54;;;;;;;8.40;4.50;;;28.50;48.40;;;;;;4977041;28;93349;-58
2023/08/18 02:06:22;;;;;;;6.63;4.17;;;28.50;49.10;;;;;;4976476;28;94026;-59
2023/08/18 02:08:50;;;;;;;7.33;5.20;;;28.50;48.50;;;;;;4977093;28;93702;-58
2023/08/18 02:11:19;;;;;;;7.40;4.57;;;28.50;48.40;;;;;;4977225;28;92105;-58
2023/08/18 02:13:47;;;;;;;7.53;5.30;;;28.50;48.40;;;;;;4977219;28;92194;-58
2023/08/18 02:16:17;;;;;;;8.87;5.57;;;28.50;48.40;;;;;;4978417;28;92143;-58
2023/08/18 02:18:47;;;;;;;8.47;5.00;;;28.50;48.50;;;;;;4988424;28;95040;-58
2023/08/18 02:21:15;;;;;;;8.30;5.13;;;28.50;48.50;;;;;;4997026;28;92911;-58
2023/08/18 02:23:43;;;;;;;10.13;5.87;;;28.40;48.40;;;;;;4996955;28;91342;-58
2023/08/18 02:26:11;;;;;;;9.70;5.83;;;28.40;48.40;;;;;;4996544;28;93844;-58
2023/08/18 02:28:40;;;;;;;7.00;4.83;;;28.40;48.50;;;;;;4996512;28;94063;-58
2023/08/18 02:31:10;;;;;;;7.97;5.00;;;28.40;48.40;;;;;;4996982;28;93483;-58
2023/08/18 02:33:40;;;;;;;6.30;4.77;;;28.40;48.40;;;;;;4996552;28;92073;-58
2023/08/18 02:36:08;;;;;;;7.23;4.93;;;28.40;48.40;;;;;;4996196;28;94072;-58
2023/08/18 02:38:40;;;;;;;10.37;6.10;;;28.40;48.40;;;;;;4996648;28;93885;-58
2023/08/18 02:41:08;;;;;;;6.17;4.27;;;28.40;48.40;;;;;;4996537;28;92052;-58
2023/08/18 02:43:36;;;;;;;5.60;4.67;;;28.40;48.40;;;;;;4996118;28;93558;-58
2023/08/18 02:46:04;;;;;;;6.23;4.33;;;28.40;48.40;;;;;;4996306;28;93188;-58
2023/08/18 02:48:32;;;;;;;6.67;4.40;;;28.40;48.40;;;;;;4997211;28;93761;-58
2023/08/18 02:51:05;;;;;;;7.43;4.53;;;28.40;48.40;;;;;;4997042;28;91944;-58
2023/08/18 02:53:34;;;;;;;9.53;5.10;;;28.40;48.40;;;;;;4996723;28;92620;-58
2023/08/18 02:56:02;;;;;;;8.63;4.83;;;28.40;48.40;;;;;;4995104;28;95659;-58
2023/08/18 02:58:30;;;;;;;8.30;5.90;;;28.40;48.40;;;;;;4994942;28;93729;-58
2023/08/18 03:01:03;;;;;;;6.63;5.07;;;28.40;48.40;;;;;;4996360;28;92149;-58
2023/08/18 03:03:31;;;;;;;10.23;6.13;;;28.40;49.10;;;;;;4996332;28;92045;-58
2023/08/18 03:06:00;;;;;;;12.03;5.90;;;28.40;48.40;;;;;;4995950;28;93068;-58
2023/08/18 03:08:30;;;;;;;7.97;6.00;;;28.40;48.40;;;;;;4996031;28;93904;-58
2023/08/18 03:10:59;;;;;;;13.23;6.33;;;28.40;48.40;;;;;;4996173;28;92046;-58
2023/08/18 03:13:27;;;;;;;7.67;5.60;;;28.40;48.40;;;;;;4996138;28;91523;-58
2023/08/18 03:15:55;;;;;;;10.20;5.17;;;28.40;48.40;;;;;;4996172;28;94419;-58
2023/08/18 03:18:24;;;;;;;8.23;5.57;;;28.40;48.50;;;;;;4995740;28;92767;-58
2023/08/18 03:20:57;;;;;;;7.50;5.43;;;28.30;48.40;;;;;;4995411;28;93150;-58
2023/08/18 03:23:26;;;;;;;8.80;5.97;;;28.40;48.50;;;;;;4995638;28;92072;-58
2023/08/18 03:26:01;;;;;;;9.00;5.60;;;28.40;48.50;;;;;;4995928;28;92155;-58
2023/08/18 03:28:29;;;;;;;10.00;6.33;;;28.30;48.40;;;;;;4995896;28;93991;-58
2023/08/18 03:31:01;;;;;;;10.53;6.20;;;28.30;48.40;;;;;;4995771;28;92048;-58
2023/08/18 03:33:30;;;;;;;9.70;5.60;;;28.30;48.40;;;;;;4996147;28;92103;-58
2023/08/18 03:35:58;;;;;;;9.00;5.97;;;28.30;48.40;;;;;;4996172;28;93114;-58
2023/08/18 03:38:26;;;;;;;9.27;6.30;;;28.30;48.50;;;;;;4996508;28;92745;-58
2023/08/18 03:41:00;;;;;;;12.17;6.10;;;28.30;48.50;;;;;;4995673;28;92015;-58
2023/08/18 03:43:28;;;;;;;9.37;6.43;;;28.30;48.50;;;;;;4994768;28;92189;-58
2023/08/18 03:45:58;;;;;;;6.50;5.10;;;28.30;48.50;;;;;;4994789;28;93054;-58
2023/08/18 03:48:26;;;;;;;8.27;5.47;;;28.30;48.50;;;;;;4992784;28;93828;-58
2023/08/18 03:50:55;;;;;;;8.63;5.60;;;28.30;48.50;;;;;;4993156;28;92152;-58
2023/08/18 03:53:23;;;;;;;9.17;6.00;;;28.30;48.50;;;;;;4999168;28;91976;-58
2023/08/18 03:55:52;;;;;;;9.73;4.63;;;28.30;48.50;;;;;;4998997;28;94191;-58
2023/08/18 03:58:21;;;;;;;8.70;6.00;;;28.20;48.40;;;;;;4998603;28;92958;-58
2023/08/18 04:00:50;;;;;;;8.70;5.03;;;28.30;48.50;;;;;;4998922;28;92234;-58
2023/08/18 04:03:18;;;;;;;9.67;5.63;;;28.30;48.50;;;;;;4998016;28;91371;-58
2023/08/18 04:05:46;;;;;;;10.87;6.80;;;28.20;48.50;;;;;;4998255;28;93095;-58
2023/08/18 04:08:15;;;;;;;7.77;5.60;;;28.20;49.10;;;;;;4997636;28;92616;-58
2023/08/18 04:10:43;;;;;;;9.27;6.13;;;28.20;48.50;;;;;;4997394;28;93044;-58
2023/08/18 04:13:13;;;;;;;11.23;5.67;;;28.20;48.40;;;;;;4997908;28;92013;-58
2023/08/18 04:15:42;;;;;;;11.77;6.10;;;28.20;48.40;;;;;;4998591;28;94112;-58
2023/08/18 04:18:10;;;;;;;8.20;5.30;;;28.20;48.40;;;;;;4997936;28;92078;-58
2023/08/18 04:20:39;;;;;;;8.43;5.73;;;28.20;48.40;;;;;;4998633;28;92045;-58
2023/08/18 04:23:08;;;;;;;6.30;5.13;;;28.30;48.50;;;;;;4998485;28;91883;-58
2023/08/18 04:25:36;;;;;;;8.50;5.63;;;28.20;48.40;;;;;;4998083;28;93235;-58
2023/08/18 04:28:04;;;;;;;8.53;5.57;;;28.30;48.50;;;;;;4998044;28;92768;-58
2023/08/18 04:30:32;;;;;;;9.23;5.50;;;28.20;48.40;;;;;;4997413;28;91765;-58
2023/08/18 04:33:02;;;;;;;5.87;4.40;;;28.20;48.40;;;;;;4998302;28;92107;-58
2023/08/18 04:35:30;;;;;;;6.63;4.77;;;28.20;48.70;;;;;;4997827;28;95008;-58
2023/08/18 04:37:58;;;;;;;7.00;4.53;;;28.20;48.40;;;;;;4997460;28;93675;-58
2023/08/18 04:40:26;;;;;;;7.53;4.63;;;28.20;48.40;;;;;;4997952;28;92020;-58
2023/08/18 04:42:54;;;;;;;5.87;4.07;;;28.20;48.40;;;;;;4996455;28;92063;-58
2023/08/18 04:45:23;;;;;;;7.07;4.53;;;28.20;48.40;;;;;;4997815;28;93094;-58
2023/08/18 04:47:51;;;;;;;5.83;4.80;;;28.20;48.40;;;;;;4997002;28;92804;-58
2023/08/18 04:50:21;;;;;;;10.50;4.93;;;28.20;48.40;;;;;;4998064;28;92101;-58
2023/08/18 04:52:49;;;;;;;7.47;4.37;;;28.20;48.40;;;;;;4998361;28;91287;-58
2023/08/18 04:55:17;;;;;;;6.73;4.30;;;28.20;48.40;;;;;;4996612;28;93104;-58
2023/08/18 04:57:45;;;;;;;5.33;4.27;;;28.20;48.40;;;;;;4997414;28;92642;-58
2023/08/18 05:00:14;;;;;;;4.60;3.37;;;28.20;48.40;;;;;;4997373;28;92973;-58
2023/08/18 05:02:42;;;;;;;6.90;4.63;;;28.10;48.40;;;;;;4997110;28;92039;-58
2023/08/18 05:05:11;;;;;;;5.30;3.67;;;28.10;48.40;;;;;;4997304;28;94197;-58
2023/08/18 05:07:40;;;;;;;4.67;4.13;;;28.10;48.40;;;;;;4997206;28;93728;-58
2023/08/18 05:10:09;;;;;;;6.23;4.60;;;28.10;48.40;;;;;;4997582;28;92056;-58
2023/08/18 05:12:37;;;;;;;6.60;4.40;;;28.10;48.40;;;;;;4996917;28;92631;-58
2023/08/18 05:15:07;;;;;;;6.63;4.23;;;28.10;48.40;;;;;;4997442;28;94222;-58
2023/08/18 05:17:35;;;;;;;4.57;3.60;;;28.10;48.40;;;;;;4997742;28;92540;-58
2023/08/18 05:20:04;;;;;;;5.57;4.23;;;28.10;48.40;;;;;;4997695;28;92042;-58
2023/08/18 05:22:32;;;;;;;6.30;3.90;;;28.10;48.40;;;;;;4999175;28;92076;-58
2023/08/18 05:25:02;;;;;;;6.93;3.90;;;28.10;48.40;;;;;;5000477;28;95140;-58
2023/08/18 05:27:30;;;;;;;4.87;3.70;;;28.00;48.40;;;;;;5000834;28;93793;-58
2023/08/18 05:29:59;;;;;;;6.37;4.40;;;28.00;48.40;;;;;;5000948;28;92178;-58
2023/08/18 05:32:27;;;;;;;5.67;4.43;;;28.10;48.50;;;;;;5000767;28;92163;-58
2023/08/18 05:34:56;;;;;;;6.47;3.90;;;28.10;48.40;;;;;;5000508;28;93962;-58
2023/08/18 05:37:24;;;;;;;5.20;4.00;;;28.10;48.40;;;;;;5001139;28;93004;-58
2023/08/18 05:39:54;;;;;;;5.33;3.33;;;28.00;48.40;;;;;;5000714;28;91905;-58
2023/08/18 05:42:23;;;;;;;4.30;3.07;;;28.00;48.40;;;;;;5000525;28;91302;-58
2023/08/18 05:44:52;;;;;;;5.27;3.67;;;28.00;48.40;;;;;;5000640;28;93009;-58
2023/08/18 05:47:20;;;;;;;10.67;3.57;;;28.00;48.40;;;;;;5000253;28;93899;-58
2023/08/18 05:49:48;;;;;;;6.40;3.30;;;28.00;48.40;;;;;;5000814;28;92846;-58
2023/08/18 05:52:16;;;;;;;4.27;3.20;;;28.00;48.40;;;;;;4999787;28;92126;-58
2023/08/18 05:54:44;;;;;;;4.33;3.27;;;28.00;48.40;;;;;;4999942;28;93229;-58
2023/08/18 05:57:12;;;;;;;5.07;2.87;;;28.10;48.40;;;;;;5000790;28;93888;-58
2023/08/18 05:59:42;;;;;;;5.17;3.13;;;28.10;48.40;;;;;;5000705;28;91874;-58
2023/08/18 06:02:10;;;;;;;3.90;2.37;;;28.00;48.30;;;;;;5000356;28;91990;-58
2023/08/18 06:04:38;;;;;;;4.23;3.50;;;28.10;48.40;;;;;;4999357;28;93091;-58
2023/08/18 06:07:06;;;;;;;2.93;2.50;;;28.10;48.40;;;;;;5000614;28;93834;-58
2023/08/18 06:09:34;;;;;;;3.37;2.33;;;28.10;48.40;;;;;;4999880;28;92080;-58
2023/08/18 06:12:02;;;;;;;4.50;2.40;;;28.10;48.40;;;;;;5000312;28;92036;-58
2023/08/18 06:14:31;;;;;;;4.63;2.60;;;28.10;48.40;;;;;;4998402;28;95067;-58
2023/08/18 06:17:00;;;;;;;2.90;2.50;;;28.10;48.30;;;;;;4999834;28;93669;-58
2023/08/18 06:19:28;;;;;;;2.73;2.33;;;28.10;48.30;;;;;;5000519;28;91985;-58
2023/08/18 06:21:56;;;;;;;3.17;2.40;;;28.10;48.40;;;;;;4999549;28;92017;-58
2023/08/18 06:24:24;;;;;;;2.43;1.80;;;28.10;48.30;;;;;;4999406;28;94080;-58
2023/08/18 06:26:53;;;;;;;4.27;2.17;;;28.10;48.30;;;;;;4999192;28;93836;-58
2023/08/18 06:29:21;;;;;;;2.83;2.13;;;28.10;48.30;;;;;;5000419;28;91965;-58
2023/08/18 06:31:49;;;;;;;3.10;2.00;;;28.10;48.30;;;;;;4999452;28;91399;-58
2023/08/18 06:34:18;;;;;;;2.20;2.00;;;28.10;48.30;;;;;;4999269;28;93031;-58
2023/08/18 06:36:47;;;;;;;2.23;2.00;;;28.10;48.30;;;;;;4999686;28;93874;-58
2023/08/18 06:39:15;;;;;;;2.40;1.70;;;28.10;48.30;;;;;;4998846;28;93006;-58
2023/08/18 06:41:43;;;;;;;3.13;2.00;;;28.10;48.30;;;;;;4999053;28;92335;-58
2023/08/18 06:44:11;;;;;;;1.80;1.67;;;28.10;48.40;;;;;;4999220;28;92106;-58
2023/08/18 06:46:39;;;;;;;2.10;1.90;;;28.10;48.40;;;;;;4999114;28;92789;-58
2023/08/18 06:49:07;;;;;;;3.50;1.80;;;28.00;48.40;;;;;;4999248;28;92062;-58
2023/08/18 06:51:37;;;;;;;2.30;1.37;;;28.00;48.40;;;;;;4999434;28;92117;-58
2023/08/18 06:54:06;;;;;;;2.77;1.80;;;28.00;48.40;;;;;;4998669;28;94009;-58
2023/08/18 06:56:34;;;;;;;2.80;1.60;;;28.00;48.40;;;;;;4999750;28;93849;-58
2023/08/18 06:59:02;;;;;;;2.53;1.90;;;28.00;48.40;;;;;;5000146;28;92074;-58
2023/08/18 07:01:31;;;;;;;1.80;1.37;;;28.00;48.40;;;;;;4999367;28;92113;-58
2023/08/18 07:03:59;;;;;;;2.60;1.40;;;28.00;48.40;;;;;;4998273;28;93942;-58
2023/08/18 07:06:27;;;;;;;1.20;1.03;;;28.00;48.40;;;;;;4998761;28;93743;-58
2023/08/18 07:08:57;;;;;;;1.60;1.50;;;28.00;48.40;;;;;;5000088;28;91780;-58
2023/08/18 07:11:25;;;;;;;1.37;1.00;;;28.00;48.40;;;;;;4999820;28;92120;-58
2023/08/18 07:13:53;;;;;;;2.00;1.17;;;28.10;48.40;;;;;;4998809;28;92907;-58
2023/08/18 07:16:21;;;;;;;1.97;1.50;;;28.10;48.40;;;;;;4998684;28;92784;-58
2023/08/18 07:18:49;;;;;;;2.17;1.33;;;28.10;48.40;;;;;;4999350;28;91896;-58
2023/08/18 07:21:17;;;;;;;5.03;1.20;;;28.10;48.40;;;;;;4999212;28;91343;-58
2023/08/18 07:23:46;;;;;;;1.30;1.10;;;28.10;48.30;;;;;;4998760;28;93029;-58
2023/08/18 07:26:16;;;;;;;2.73;1.20;;;28.10;48.30;;;;;;4998861;28;92824;-58
2023/08/18 07:28:44;;;;;;;1.27;1.17;;;28.20;48.30;;;;;;4998574;28;92820;-58
2023/08/18 07:31:12;;;;;;;1.57;1.37;;;28.30;48.30;;;;;;4999020;28;91912;-58
2023/08/18 07:33:41;;;;;;;1.30;1.13;;;28.30;48.30;;;;;;4999134;28;92925;-58
2023/08/18 07:36:09;;;;;;;3.20;0.80;;;28.30;48.20;;;;;;4998514;28;92718;-58
2023/08/18 07:38:37;;;;;;;0.83;0.83;;;28.30;48.20;;;;;;4999175;28;92049;-58
2023/08/18 07:41:05;;;;;;;1.17;1.07;;;28.30;48.20;;;;;;4998109;28;91986;-58
2023/08/18 07:43:35;;;;;;;0.87;0.87;;;28.30;48.20;;;;;;4998124;28;94144;-58
2023/08/18 07:46:03;;;;;;;0.90;0.80;;;28.40;48.20;;;;;;4998195;28;92860;-58
2023/08/18 07:48:31;;;;;;;1.10;0.87;;;28.40;48.20;;;;;;4998383;28;92020;-58
2023/08/18 07:51:00;;;;;;;1.83;0.93;;;28.40;48.20;;;;;;4998380;28;92090;-58
2023/08/18 07:53:28;;;;;;;1.13;0.90;;;28.40;48.20;;;;;;4997703;28;94027;-58
2023/08/18 07:55:56;;;;;;;0.83;0.70;;;28.40;48.20;;;;;;4998332;28;94912;-58
2023/08/18 07:58:25;;;;;;;0.80;0.80;;;28.40;48.20;;;;;;4998805;28;92150;-58
2023/08/18 08:00:55;;;;;;;0.73;0.73;;;28.40;48.20;;;;;;4998633;28;92108;-58
2023/08/18 08:03:24;;;;;;;0.63;0.63;;;28.40;48.20;;;;;;4999101;28;94091;-58
2023/08/18 08:05:52;;;;;;;1.80;0.80;;;28.40;48.90;;;;;;4998401;28;93670;-58
2023/08/18 08:08:20;;;;;;;1.10;1.00;;;28.40;48.30;;;;;;4998588;28;92081;-58
2023/08/18 08:10:48;;;;;;;0.90;0.70;;;28.40;48.20;;;;;;4998935;28;91359;-58
2023/08/18 08:13:16;;;;;;;1.27;1.17;;;28.40;48.20;;;;;;4998711;28;93381;-58
2023/08/18 08:15:45;;;;;;;0.80;0.70;;;28.40;48.20;;;;;;4998662;28;92694;-58
2023/08/18 08:18:16;;;;;;;1.80;1.10;;;28.40;48.20;;;;;;4998541;28;92817;-58
2023/08/18 08:20:45;;;;;;;0.87;0.87;;;28.40;48.20;;;;;;4998508;28;91901;-58
2023/08/18 08:23:15;;;;;;;2.10;0.77;;;28.40;48.20;;;;;;4998105;28;94472;-58
2023/08/18 08:25:43;;;;;;;1.17;0.80;;;28.40;48.20;;;;;;4997974;28;93889;-58
2023/08/18 08:28:11;;;;;;;1.10;1.00;;;28.40;48.20;;;;;;4998408;28;92065;-58
2023/08/18 08:30:44;;;;;;;2.20;1.07;;;28.40;48.80;;;;;;4998615;28;92191;-58
2023/08/18 08:33:12;;;;;;;1.40;1.10;;;28.40;48.20;;;;;;4997484;28;93101;-58
2023/08/18 08:35:45;;;;;;;1.13;1.03;;;28.40;48.20;;;;;;4997560;28;93972;-58
2023/08/18 08:38:13;;;;;;;1.37;1.10;;;28.40;48.20;;;;;;4997012;28;92002;-58
2023/08/18 08:40:42;;;;;;;1.20;0.90;;;28.40;48.20;;;;;;4998464;28;92034;-58
2023/08/18 08:43:10;;;;;;;0.87;0.70;;;28.40;48.20;;;;;;4995930;28;93895;-58
2023/08/18 08:45:39;;;;;;;1.10;0.80;;;28.50;48.20;;;;;;4997347;28;94817;-58
2023/08/18 08:48:08;;;;;;;2.20;1.20;;;28.50;48.30;;;;;;4997943;28;92045;-58
2023/08/18 08:50:39;;;;;;;0.80;0.80;;;28.50;48.20;;;;;;4997307;28;92075;-58
2023/08/18 08:53:11;;;;;;;1.13;0.87;;;28.50;48.20;;;;;;4997606;28;93109;-58
2023/08/18 08:55:40;;;;;;;1.43;1.00;;;28.50;48.90;;;;;;4996672;28;92813;-58
2023/08/18 08:58:08;;;;;;;1.10;1.00;;;28.50;48.80;;;;;;4997257;28;91987;-58
2023/08/18 09:00:41;;;;;;;1.20;0.90;;;28.50;48.20;;;;;;4997747;28;91295;-58
2023/08/18 09:03:09;;;;;;;1.73;1.13;;;28.50;48.20;;;;;;4996862;28;93253;-58
2023/08/18 09:05:38;;;;;;;1.23;1.10;;;28.40;48.20;;;;;;4996959;28;93215;-58
2023/08/18 09:08:06;;;;;;;0.87;0.87;;;28.50;48.20;;;;;;4997184;28;92896;-58
2023/08/18 09:10:38;;;;;;;1.40;1.10;;;28.50;48.20;;;;;;4997855;28;92115;-58
2023/08/18 09:13:07;;;;;;;1.10;1.00;;;28.50;48.20;;;;;;4997636;28;93253;-58
2023/08/18 09:15:35;;;;;;;1.27;0.90;;;28.50;48.20;;;;;;4996629;28;93745;-58
2023/08/18 09:18:04;;;;;;;0.90;0.73;;;28.50;48.20;;;;;;4997579;28;91916;-58
2023/08/18 09:20:32;;;;;;;4.67;1.27;;;28.50;48.30;;;;;;4997737;28;92140;-58
2023/08/18 09:23:00;;;;;;;1.67;1.30;;;28.50;48.20;;;;;;4997372;28;94248;-58
2023/08/18 09:25:30;;;;;;;2.17;1.90;;;28.50;48.20;;;;;;4997557;28;92830;-58
2023/08/18 09:28:00;;;;;;;3.50;1.93;;;28.50;48.20;;;;;;4997678;28;92058;-58
2023/08/18 09:30:33;;;;;;;3.47;1.90;;;28.50;48.20;;;;;;4996523;28;92128;-58
2023/08/18 09:33:01;;;;;;;3.03;2.13;;;28.60;48.30;;;;;;4995883;28;94215;-58
2023/08/18 09:35:32;;;;;;;2.20;1.77;;;28.50;48.20;;;;;;4997154;28;93688;-58
2023/08/18 09:38:01;;;;;;;4.57;2.33;;;28.60;48.30;;;;;;4997410;28;92058;-58
2023/08/18 09:40:29;;;;;;;2.83;2.17;;;28.60;48.20;;;;;;4996128;28;92119;-58
2023/08/18 09:42:59;;;;;;;5.70;2.50;;;28.60;48.30;;;;;;4995774;28;93280;-58
2023/08/18 09:45:32;;;;;;;3.13;2.30;;;28.60;48.30;;;;;;4996957;28;93806;-58
2023/08/18 09:48:00;;;;;;;5.20;2.10;;;28.60;48.30;;;;;;4996511;28;92111;-58
2023/08/18 09:50:30;;;;;;;3.30;2.30;;;28.60;48.20;;;;;;4997004;28;91298;-58
2023/08/18 09:52:59;;;;;;;4.33;2.20;;;28.60;48.20;;;;;;4996619;28;94191;-58
2023/08/18 09:55:29;;;;;;;5.13;2.30;;;28.60;48.20;;;;;;4995999;28;93160;-59
2023/08/18 09:58:04;;;;;;;2.40;2.20;;;28.60;48.20;;;;;;4996163;28;92780;-58
2023/08/18 10:00:32;;;;;;;3.33;2.33;;;28.70;48.30;;;;;;4996182;28;92544;-58
2023/08/18 10:03:03;;;;;;;2.60;1.83;;;28.60;48.20;;;;;;4996560;28;92274;-58
2023/08/18 10:05:31;;;;;;;2.60;1.80;;;28.70;48.30;;;;;;4996283;28;94111;-58
2023/08/18 10:07:59;;;;;;;3.97;2.37;;;28.70;48.30;;;;;;4998631;28;91938;-58
2023/08/18 10:10:28;;;;;;;3.53;2.30;;;28.70;48.30;;;;;;4999795;28;92084;-58
2023/08/18 10:12:56;;;;;;;3.60;2.33;;;28.70;48.30;;;;;;4999836;28;93318;-58
2023/08/18 10:15:26;;;;;;;3.13;2.03;;;28.70;48.40;;;;;;4998965;28;93031;-58
2023/08/18 10:17:54;;;;;;;2.57;1.87;;;28.70;48.30;;;;;;4999971;28;92090;-58
2023/08/18 10:20:22;;;;;;;4.07;1.90;;;28.70;48.40;;;;;;4999039;28;92018;-58
2023/08/18 10:22:50;;;;;;;2.93;2.07;;;28.70;48.40;;;;;;4998884;28;94046;-58
2023/08/18 10:25:25;;;;;;;3.03;2.40;;;28.70;48.40;;;;;;4999891;28;93838;-58
2023/08/18 10:27:54;;;;;;;3.53;2.20;;;28.70;48.40;;;;;;5000566;28;92117;-58
2023/08/18 10:30:27;;;;;;;2.60;2.10;;;28.70;48.30;;;;;;4999102;28;92045;-58
2023/08/18 10:33:06;;;;;;;2.77;2.00;;;28.70;48.40;;;;;;4999270;28;93030;-58
2023/08/18 10:35:39;;;;;;;1.97;1.80;;;28.70;48.40;;;;;;4999425;28;93896;-58
2023/08/18 10:38:08;;;;;;;4.40;2.27;;;28.80;48.40;;;;;;4999693;28;92082;-58
2023/08/18 10:40:37;;;;;;;3.57;2.03;;;28.70;48.30;;;;;;5000084;28;91420;-58
2023/08/18 10:43:07;;;;;;;3.30;1.80;;;28.80;48.40;;;;;;4997942;28;93700;-58
2023/08/18 10:45:37;;;;;;;2.63;1.70;;;28.80;48.40;;;;;;4998971;28;92764;-58
2023/08/18 10:48:06;;;;;;;2.37;1.80;;;28.80;48.40;;;;;;4999551;28;92933;-58
2023/08/18 10:50:36;;;;;;;5.23;2.00;;;28.80;48.40;;;;;;4999534;28;92113;-58
2023/08/18 10:53:04;;;;;;;2.63;1.83;;;28.80;48.40;;;;;;4999327;28;93334;-58
2023/08/18 10:55:33;;;;;;;2.93;2.03;;;28.90;48.50;;;;;;4998935;28;93636;-58
2023/08/18 10:58:02;;;;;;;3.00;2.00;;;28.90;48.50;;;;;;4998741;28;92013;-58
2023/08/18 11:00:32;;;;;;;2.33;1.90;;;28.90;48.50;;;;;;4999056;28;92048;-58
2023/08/18 11:03:03;;;;;;;2.30;1.73;;;28.90;48.40;;;;;;4999325;28;94411;-58
2023/08/18 11:05:31;;;;;;;2.30;1.70;;;28.90;48.40;;;;;;4999532;28;92908;-58
2023/08/18 11:08:00;;;;;;;2.27;1.77;;;28.90;48.40;;;;;;4999911;28;91937;-58
2023/08/18 11:10:29;;;;;;;2.77;1.70;;;29.00;48.50;;;;;;4999659;28;92093;-58
2023/08/18 11:12:58;;;;;;;3.20;1.47;;;29.00;48.40;;;;;;4998949;28;94018;-58
2023/08/18 11:15:28;;;;;;;4.80;2.00;;;29.00;48.40;;;;;;4997685;28;93760;-58
2023/08/18 11:17:56;;;;;;;4.00;1.63;;;29.00;48.40;;;;;;4999002;28;92114;-58
2023/08/18 11:20:25;;;;;;;1.90;1.40;;;29.00;49.10;;;;;;4997807;28;92223;-58
2023/08/18 11:22:54;;;;;;;2.43;2.00;;;29.00;48.40;;;;;;4999277;28;93187;-58
2023/08/18 11:25:22;;;;;;;3.80;2.37;;;29.00;48.50;;;;;;4999269;28;93901;-59
2023/08/18 11:27:52;;;;;;;3.47;1.90;;;29.00;48.50;;;;;;4998462;28;91998;-58
2023/08/18 11:30:21;;;;;;;3.77;1.70;;;29.00;48.50;;;;;;4999123;28;91360;-59
2023/08/18 11:32:50;;;;;;;2.10;1.80;;;29.00;48.50;;;;;;4999368;28;94452;-58
2023/08/18 11:35:19;;;;;;;5.87;1.60;;;29.00;48.60;;;;;;4998775;28;93847;-59
2023/08/18 11:37:51;;;;;;;1.83;1.50;;;29.00;48.60;;;;;;4998123;28;92954;-58
2023/08/18 11:40:19;;;;;;;2.53;1.80;;;29.00;48.60;;;;;;4998143;28;92011;-59
2023/08/18 11:42:48;;;;;;;3.30;2.03;;;29.00;48.60;;;;;;4998083;28;93228;-58
2023/08/18 11:45:17;;;;;;;2.93;1.97;;;29.00;48.60;;;;;;4999034;28;93482;-58
2023/08/18 11:47:46;;;;;;;2.70;1.60;;;29.00;48.60;;;;;;4997877;28;92098;-58
2023/08/18 11:50:19;;;;;;;2.40;1.63;;;29.10;48.70;;;;;;4998326;28;91852;-58
2023/08/18 11:52:52;;;;;;;3.47;1.80;;;29.00;48.60;;;;;;4998708;28;94168;-58
2023/08/18 11:55:30;;;;;;;2.80;1.70;;;29.00;48.60;;;;;;4999265;28;93853;-58
2023/08/18 11:57:58;;;;;;;1.90;1.60;;;29.00;48.70;;;;;;4999097;28;91882;-58
2023/08/18 12:00:31;;;;;;;1.80;1.67;;;29.10;48.70;;;;;;4999334;28;92153;-58
2023/08/18 12:03:00;;;;;;;2.03;1.70;;;29.10;48.70;;;;;;4998314;28;94024;-58
2023/08/18 12:05:28;;;;;;;2.80;1.83;;;29.10;48.70;;;;;;4998644;28;93966;-58
2023/08/18 12:07:58;;;;;;;2.30;1.80;;;29.10;48.70;;;;;;4999095;28;92053;-58
2023/08/18 12:10:26;;;;;;;3.37;2.03;;;29.10;49.40;;;;;;4998838;28;92027;-58
2023/08/18 12:12:56;;;;;;;1.70;1.53;;;29.10;48.80;;;;;;4998001;28;94188;-58
2023/08/18 12:15:26;;;;;;;2.57;1.60;;;29.10;48.80;;;;;;4998321;28;94000;-58
2023/08/18 12:17:54;;;;;;;3.97;1.50;;;29.10;48.80;;;;;;4998307;28;91925;-58
2023/08/18 12:20:23;;;;;;;4.17;1.60;;;29.10;48.80;;;;;;4993751;28;92096;-58
2023/08/18 12:22:52;;;;;;;2.13;1.80;;;29.20;48.80;;;;;;4975503;28;93093;-58
2023/08/18 12:25:22;;;;;;;2.40;2.13;;;29.20;48.80;;;;;;4974329;28;93345;-58
2023/08/18 12:27:51;;;;;;;2.83;2.13;;;29.20;48.90;;;;;;4974347;28;92953;-58
2023/08/18 12:30:19;;;;;;;2.63;2.33;;;29.30;48.90;;;;;;4975024;28;92594;-59
2023/08/18 12:32:49;;;;;;;4.67;2.60;;;29.20;48.90;;;;;;4974467;28;94755;-58
2023/08/18 12:35:18;;;;;;;2.93;2.60;;;29.20;48.90;;;;;;4973888;28;92743;-59
2023/08/18 12:37:46;;;;;;;3.87;2.83;;;29.30;49.00;;;;;;4975946;28;93215;-58
2023/08/18 12:40:14;;;;;;;3.67;2.30;;;29.30;48.90;;;;;;4975534;28;92239;-58
2023/08/18 12:42:44;;;;;;;5.03;2.63;;;29.30;49.00;;;;;;4975412;28;93194;-58
2023/08/18 12:45:12;;;;;;;3.27;2.70;;;29.30;49.00;;;;;;4975650;28;92750;-58
2023/08/18 12:47:40;;;;;;;3.90;2.57;;;29.30;49.00;;;;;;4974444;28;91981;-58
2023/08/18 12:50:09;;;;;;;4.67;3.43;;;29.30;48.90;;;;;;4974754;28;92719;-58
2023/08/18 12:52:40;;;;;;;3.83;3.07;;;29.30;48.90;;;;;;4974390;28;93778;-58
2023/08/18 12:55:09;;;;;;;4.63;3.23;;;29.40;49.00;;;;;;4974355;28;93491;-59